sensor_id;sensor_type;location;lat;lon;timestamp;P1;durP1;ratioP1;P2;durP2;ratioP2
43248;SDS011;29216;51.248;6.808;2023-08-06T00:00:41;11.63;;;5.60;;
43248;SDS011;29216;51.248;6.808;2023-08-06T00:03:07;5.03;;;3.72;;
43248;SDS011;29216;51.248;6.808;2023-08-06T00:05:33;6.53;;;4.13;;
43248;SDS011;29216;51.248;6.808;2023-08-06T00:07:59;5.78;;;3.72;;
43248;SDS011;29216;51.248;6.808;2023-08-06T00:10:25;4.55;;;3.95;;
43248;SDS011;29216;51.248;6.808;2023-08-06T00:12:51;10.05;;;4.65;;
43248;SDS011;29216;51.248;6.808;2023-08-06T00:15:17;6.72;;;3.90;;
43248;SDS011;29216;51.248;6.808;2023-08-06T00:17:43;7.18;;;3.72;;
43248;SDS011;29216;51.248;6.808;2023-08-06T00:20:09;4.30;;;3.90;;
43248;SDS011;29216;51.248;6.808;2023-08-06T00:22:36;4.30;;;3.65;;
43248;SDS011;29216;51.248;6.808;2023-08-06T00:25:02;8.02;;;3.70;;
43248;SDS011;29216;51.248;6.808;2023-08-06T00:27:28;4.82;;;3.63;;
43248;SDS011;29216;51.248;6.808;2023-08-06T00:29:54;6.05;;;3.72;;
43248;SDS011;29216;51.248;6.808;2023-08-06T00:32:20;4.65;;;4.00;;
43248;SDS011;29216;51.248;6.808;2023-08-06T00:34:49;11.98;;;4.50;;
43248;SDS011;29216;51.248;6.808;2023-08-06T00:37:15;5.60;;;3.90;;
43248;SDS011;29216;51.248;6.808;2023-08-06T00:39:41;7.50;;;4.03;;
43248;SDS011;29216;51.248;6.808;2023-08-06T00:42:08;5.78;;;3.88;;
43248;SDS011;29216;51.248;6.808;2023-08-06T00:44:34;7.38;;;3.55;;
43248;SDS011;29216;51.248;6.808;2023-08-06T00:47:00;5.28;;;3.80;;
43248;SDS011;29216;51.248;6.808;2023-08-06T00:49:27;7.75;;;3.60;;
43248;SDS011;29216;51.248;6.808;2023-08-06T00:51:53;9.48;;;3.50;;
43248;SDS011;29216;51.248;6.808;2023-08-06T00:54:19;5.40;;;4.00;;
43248;SDS011;29216;51.248;6.808;2023-08-06T00:56:48;8.20;;;4.30;;
43248;SDS011;29216;51.248;6.808;2023-08-06T00:59:16;5.25;;;3.67;;
43248;SDS011;29216;51.248;6.808;2023-08-06T01:01:42;6.85;;;3.80;;
43248;SDS011;29216;51.248;6.808;2023-08-06T01:04:09;8.48;;;3.70;;
43248;SDS011;29216;51.248;6.808;2023-08-06T01:09:04;5.90;;;3.50;;
43248;SDS011;29216;51.248;6.808;2023-08-06T01:11:33;6.03;;;3.22;;
43248;SDS011;29216;51.248;6.808;2023-08-06T01:14:15;5.03;;;3.33;;
43248;SDS011;29216;51.248;6.808;2023-08-06T01:16:41;6.75;;;3.55;;
43248;SDS011;29216;51.248;6.808;2023-08-06T01:19:17;4.05;;;3.40;;
43248;SDS011;29216;51.248;6.808;2023-08-06T01:21:44;7.80;;;3.83;;
43248;SDS011;29216;51.248;6.808;2023-08-06T01:24:10;6.45;;;3.35;;
43248;SDS011;29216;51.248;6.808;2023-08-06T01:26:42;5.13;;;3.38;;
43248;SDS011;29216;51.248;6.808;2023-08-06T01:31:53;4.60;;;3.15;;
43248;SDS011;29216;51.248;6.808;2023-08-06T01:34:21;4.68;;;3.42;;
43248;SDS011;29216;51.248;6.808;2023-08-06T01:36:48;4.35;;;3.30;;
43248;SDS011;29216;51.248;6.808;2023-08-06T01:39:14;6.72;;;3.03;;
43248;SDS011;29216;51.248;6.808;2023-08-06T01:41:40;4.63;;;3.03;;
43248;SDS011;29216;51.248;6.808;2023-08-06T01:44:06;6.93;;;3.83;;
43248;SDS011;29216;51.248;6.808;2023-08-06T01:46:32;4.50;;;3.17;;
43248;SDS011;29216;51.248;6.808;2023-08-06T01:49:00;4.20;;;3.30;;
43248;SDS011;29216;51.248;6.808;2023-08-06T01:51:26;7.20;;;4.50;;
43248;SDS011;29216;51.248;6.808;2023-08-06T01:53:52;3.78;;;3.40;;
43248;SDS011;29216;51.248;6.808;2023-08-06T01:56:18;4.57;;;3.22;;
43248;SDS011;29216;51.248;6.808;2023-08-06T01:58:44;4.63;;;3.28;;
43248;SDS011;29216;51.248;6.808;2023-08-06T02:01:10;3.70;;;3.10;;
43248;SDS011;29216;51.248;6.808;2023-08-06T02:03:36;4.50;;;3.65;;
43248;SDS011;29216;51.248;6.808;2023-08-06T02:06:02;7.03;;;4.00;;
43248;SDS011;29216;51.248;6.808;2023-08-06T02:08:28;4.97;;;3.22;;
43248;SDS011;29216;51.248;6.808;2023-08-06T02:10:54;12.68;;;3.25;;
43248;SDS011;29216;51.248;6.808;2023-08-06T02:13:20;5.50;;;3.60;;
43248;SDS011;29216;51.248;6.808;2023-08-06T02:15:46;4.90;;;3.50;;
43248;SDS011;29216;51.248;6.808;2023-08-06T02:18:13;5.38;;;3.60;;
43248;SDS011;29216;51.248;6.808;2023-08-06T02:20:40;4.10;;;3.30;;
43248;SDS011;29216;51.248;6.808;2023-08-06T02:23:06;4.20;;;2.92;;
43248;SDS011;29216;51.248;6.808;2023-08-06T02:25:32;5.07;;;3.65;;
43248;SDS011;29216;51.248;6.808;2023-08-06T02:27:58;5.40;;;3.45;;
43248;SDS011;29216;51.248;6.808;2023-08-06T02:30:24;7.72;;;3.42;;
43248;SDS011;29216;51.248;6.808;2023-08-06T02:32:50;5.88;;;3.50;;
43248;SDS011;29216;51.248;6.808;2023-08-06T02:35:16;4.57;;;3.22;;
43248;SDS011;29216;51.248;6.808;2023-08-06T02:37:42;6.63;;;3.70;;
43248;SDS011;29216;51.248;6.808;2023-08-06T02:40:08;4.22;;;3.65;;
43248;SDS011;29216;51.248;6.808;2023-08-06T02:42:34;5.18;;;3.33;;
43248;SDS011;29216;51.248;6.808;2023-08-06T02:45:00;8.20;;;3.50;;
43248;SDS011;29216;51.248;6.808;2023-08-06T02:47:26;5.60;;;3.50;;
43248;SDS011;29216;51.248;6.808;2023-08-06T02:49:52;4.80;;;3.30;;
43248;SDS011;29216;51.248;6.808;2023-08-06T02:52:18;5.88;;;3.83;;
43248;SDS011;29216;51.248;6.808;2023-08-06T02:54:44;5.55;;;3.83;;
43248;SDS011;29216;51.248;6.808;2023-08-06T02:57:10;6.55;;;3.28;;
43248;SDS011;29216;51.248;6.808;2023-08-06T02:59:36;4.57;;;3.45;;
43248;SDS011;29216;51.248;6.808;2023-08-06T03:02:02;4.15;;;3.40;;
43248;SDS011;29216;51.248;6.808;2023-08-06T03:04:28;3.80;;;3.00;;
43248;SDS011;29216;51.248;6.808;2023-08-06T03:06:54;6.72;;;3.90;;
43248;SDS011;29216;51.248;6.808;2023-08-06T03:09:20;5.20;;;3.80;;
43248;SDS011;29216;51.248;6.808;2023-08-06T03:11:46;4.97;;;3.88;;
43248;SDS011;29216;51.248;6.808;2023-08-06T03:14:12;4.40;;;3.45;;
43248;SDS011;29216;51.248;6.808;2023-08-06T03:16:38;4.07;;;3.47;;
43248;SDS011;29216;51.248;6.808;2023-08-06T03:19:04;5.75;;;3.35;;
43248;SDS011;29216;51.248;6.808;2023-08-06T03:21:30;4.60;;;3.50;;
43248;SDS011;29216;51.248;6.808;2023-08-06T03:23:56;4.32;;;3.38;;
43248;SDS011;29216;51.248;6.808;2023-08-06T03:26:22;5.32;;;3.70;;
43248;SDS011;29216;51.248;6.808;2023-08-06T03:28:48;3.80;;;3.22;;
43248;SDS011;29216;51.248;6.808;2023-08-06T03:31:14;3.90;;;3.50;;
43248;SDS011;29216;51.248;6.808;2023-08-06T03:33:40;4.47;;;3.22;;
43248;SDS011;29216;51.248;6.808;2023-08-06T03:36:05;6.03;;;3.60;;
43248;SDS011;29216;51.248;6.808;2023-08-06T03:38:31;4.80;;;3.47;;
43248;SDS011;29216;51.248;6.808;2023-08-06T03:40:57;3.88;;;3.00;;
43248;SDS011;29216;51.248;6.808;2023-08-06T03:43:23;7.22;;;3.75;;
43248;SDS011;29216;51.248;6.808;2023-08-06T03:45:49;3.90;;;3.50;;
43248;SDS011;29216;51.248;6.808;2023-08-06T03:48:16;5.22;;;3.30;;
43248;SDS011;29216;51.248;6.808;2023-08-06T03:50:41;5.65;;;3.97;;
43248;SDS011;29216;51.248;6.808;2023-08-06T03:53:07;4.82;;;3.60;;
43248;SDS011;29216;51.248;6.808;2023-08-06T03:55:33;5.65;;;3.70;;
43248;SDS011;29216;51.248;6.808;2023-08-06T03:57:59;3.60;;;3.22;;
43248;SDS011;29216;51.248;6.808;2023-08-06T04:00:25;4.57;;;3.28;;
43248;SDS011;29216;51.248;6.808;2023-08-06T04:02:51;5.53;;;3.60;;
43248;SDS011;29216;51.248;6.808;2023-08-06T04:05:18;6.07;;;3.58;;
43248;SDS011;29216;51.248;6.808;2023-08-06T04:07:44;3.47;;;2.97;;
43248;SDS011;29216;51.248;6.808;2023-08-06T04:10:10;4.85;;;3.47;;
43248;SDS011;29216;51.248;6.808;2023-08-06T04:12:36;4.80;;;3.10;;
43248;SDS011;29216;51.248;6.808;2023-08-06T04:15:04;9.00;;;3.63;;
43248;SDS011;29216;51.248;6.808;2023-08-06T04:17:30;3.42;;;3.05;;
43248;SDS011;29216;51.248;6.808;2023-08-06T04:19:56;5.90;;;3.42;;
43248;SDS011;29216;51.248;6.808;2023-08-06T04:22:24;5.07;;;3.35;;
43248;SDS011;29216;51.248;6.808;2023-08-06T04:24:50;5.10;;;3.10;;
43248;SDS011;29216;51.248;6.808;2023-08-06T04:27:16;5.63;;;3.28;;
43248;SDS011;29216;51.248;6.808;2023-08-06T04:29:42;4.85;;;3.20;;
43248;SDS011;29216;51.248;6.808;2023-08-06T04:32:08;5.15;;;3.40;;
43248;SDS011;29216;51.248;6.808;2023-08-06T04:34:35;8.13;;;3.10;;
43248;SDS011;29216;51.248;6.808;2023-08-06T04:37:02;4.53;;;3.20;;
43248;SDS011;29216;51.248;6.808;2023-08-06T04:39:29;5.82;;;3.47;;
43248;SDS011;29216;51.248;6.808;2023-08-06T04:41:55;4.38;;;3.40;;
43248;SDS011;29216;51.248;6.808;2023-08-06T04:44:22;6.88;;;3.70;;
43248;SDS011;29216;51.248;6.808;2023-08-06T04:46:48;6.57;;;3.00;;
43248;SDS011;29216;51.248;6.808;2023-08-06T04:49:14;4.70;;;3.72;;
43248;SDS011;29216;51.248;6.808;2023-08-06T04:51:40;7.05;;;3.20;;
43248;SDS011;29216;51.248;6.808;2023-08-06T04:54:06;4.30;;;2.85;;
43248;SDS011;29216;51.248;6.808;2023-08-06T04:56:32;6.00;;;2.95;;
43248;SDS011;29216;51.248;6.808;2023-08-06T04:58:58;5.35;;;2.80;;
43248;SDS011;29216;51.248;6.808;2023-08-06T05:01:25;4.88;;;3.15;;
43248;SDS011;29216;51.248;6.808;2023-08-06T05:03:51;4.93;;;3.13;;
43248;SDS011;29216;51.248;6.808;2023-08-06T05:06:17;4.05;;;2.78;;
43248;SDS011;29216;51.248;6.808;2023-08-06T05:08:43;5.50;;;3.33;;
43248;SDS011;29216;51.248;6.808;2023-08-06T05:11:09;6.35;;;3.03;;
43248;SDS011;29216;51.248;6.808;2023-08-06T05:13:35;4.68;;;2.95;;
43248;SDS011;29216;51.248;6.808;2023-08-06T05:16:01;4.38;;;2.90;;
43248;SDS011;29216;51.248;6.808;2023-08-06T05:18:27;7.28;;;3.28;;
43248;SDS011;29216;51.248;6.808;2023-08-06T05:20:53;5.43;;;2.80;;
43248;SDS011;29216;51.248;6.808;2023-08-06T05:23:19;3.85;;;2.83;;
43248;SDS011;29216;51.248;6.808;2023-08-06T05:25:45;5.78;;;3.05;;
43248;SDS011;29216;51.248;6.808;2023-08-06T05:28:11;4.32;;;3.28;;
43248;SDS011;29216;51.248;6.808;2023-08-06T05:30:40;5.50;;;2.83;;
43248;SDS011;29216;51.248;6.808;2023-08-06T05:33:06;4.35;;;2.95;;
43248;SDS011;29216;51.248;6.808;2023-08-06T05:35:32;5.95;;;3.03;;
43248;SDS011;29216;51.248;6.808;2023-08-06T05:37:58;4.95;;;3.13;;
43248;SDS011;29216;51.248;6.808;2023-08-06T05:40:24;3.90;;;2.60;;
43248;SDS011;29216;51.248;6.808;2023-08-06T05:42:53;5.13;;;3.10;;
43248;SDS011;29216;51.248;6.808;2023-08-06T05:45:19;4.10;;;2.90;;
43248;SDS011;29216;51.248;6.808;2023-08-06T05:47:45;3.85;;;2.88;;
43248;SDS011;29216;51.248;6.808;2023-08-06T05:50:11;4.78;;;2.70;;
43248;SDS011;29216;51.248;6.808;2023-08-06T05:52:37;8.40;;;3.17;;
43248;SDS011;29216;51.248;6.808;2023-08-06T05:55:03;5.28;;;2.60;;
43248;SDS011;29216;51.248;6.808;2023-08-06T05:57:29;5.72;;;2.65;;
43248;SDS011;29216;51.248;6.808;2023-08-06T05:59:55;2.67;;;2.42;;
43248;SDS011;29216;51.248;6.808;2023-08-06T06:02:21;4.03;;;2.25;;
43248;SDS011;29216;51.248;6.808;2023-08-06T06:04:47;5.30;;;2.45;;
43248;SDS011;29216;51.248;6.808;2023-08-06T06:07:13;5.13;;;2.45;;
43248;SDS011;29216;51.248;6.808;2023-08-06T06:09:39;5.18;;;2.28;;
43248;SDS011;29216;51.248;6.808;2023-08-06T06:12:05;2.35;;;2.00;;
43248;SDS011;29216;51.248;6.808;2023-08-06T06:14:32;3.13;;;2.08;;
43248;SDS011;29216;51.248;6.808;2023-08-06T06:16:58;2.88;;;2.33;;
43248;SDS011;29216;51.248;6.808;2023-08-06T06:19:25;2.50;;;2.30;;
43248;SDS011;29216;51.248;6.808;2023-08-06T06:21:51;3.55;;;2.10;;
43248;SDS011;29216;51.248;6.808;2023-08-06T06:24:18;5.50;;;2.40;;
43248;SDS011;29216;51.248;6.808;2023-08-06T06:26:44;4.80;;;2.20;;
43248;SDS011;29216;51.248;6.808;2023-08-06T06:29:10;2.95;;;1.92;;
43248;SDS011;29216;51.248;6.808;2023-08-06T06:31:36;3.38;;;2.05;;
43248;SDS011;29216;51.248;6.808;2023-08-06T06:34:01;2.67;;;2.10;;
43248;SDS011;29216;51.248;6.808;2023-08-06T06:36:27;4.80;;;2.40;;
43248;SDS011;29216;51.248;6.808;2023-08-06T06:38:53;2.13;;;1.90;;
43248;SDS011;29216;51.248;6.808;2023-08-06T06:41:19;5.25;;;2.05;;
43248;SDS011;29216;51.248;6.808;2023-08-06T06:43:45;3.03;;;1.73;;
43248;SDS011;29216;51.248;6.808;2023-08-06T06:46:11;3.22;;;2.13;;
43248;SDS011;29216;51.248;6.808;2023-08-06T06:48:37;3.13;;;1.90;;
43248;SDS011;29216;51.248;6.808;2023-08-06T06:51:03;2.78;;;2.00;;
43248;SDS011;29216;51.248;6.808;2023-08-06T06:53:29;3.72;;;2.00;;
43248;SDS011;29216;51.248;6.808;2023-08-06T06:56:05;3.15;;;1.65;;
43248;SDS011;29216;51.248;6.808;2023-08-06T06:58:31;2.25;;;1.90;;
43248;SDS011;29216;51.248;6.808;2023-08-06T07:00:57;2.08;;;1.75;;
43248;SDS011;29216;51.248;6.808;2023-08-06T07:03:23;2.83;;;2.08;;
43248;SDS011;29216;51.248;6.808;2023-08-06T07:05:49;2.00;;;1.80;;
43248;SDS011;29216;51.248;6.808;2023-08-06T07:08:16;3.15;;;1.90;;
43248;SDS011;29216;51.248;6.808;2023-08-06T07:10:42;2.75;;;1.95;;
43248;SDS011;29216;51.248;6.808;2023-08-06T07:13:08;2.13;;;1.90;;
43248;SDS011;29216;51.248;6.808;2023-08-06T07:15:34;2.10;;;1.60;;
43248;SDS011;29216;51.248;6.808;2023-08-06T07:18:00;1.73;;;1.63;;
43248;SDS011;29216;51.248;6.808;2023-08-06T07:20:26;1.70;;;1.60;;
43248;SDS011;29216;51.248;6.808;2023-08-06T07:22:56;1.50;;;1.40;;
43248;SDS011;29216;51.248;6.808;2023-08-06T07:25:22;4.40;;;1.90;;
43248;SDS011;29216;51.248;6.808;2023-08-06T07:27:48;3.13;;;1.90;;
43248;SDS011;29216;51.248;6.808;2023-08-06T07:30:14;2.70;;;1.52;;
43248;SDS011;29216;51.248;6.808;2023-08-06T07:32:40;4.07;;;1.88;;
43248;SDS011;29216;51.248;6.808;2023-08-06T07:35:06;3.03;;;1.63;;
43248;SDS011;29216;51.248;6.808;2023-08-06T07:37:34;2.88;;;1.85;;
43248;SDS011;29216;51.248;6.808;2023-08-06T07:40:00;1.70;;;1.50;;
43248;SDS011;29216;51.248;6.808;2023-08-06T07:42:26;2.45;;;1.88;;
43248;SDS011;29216;51.248;6.808;2023-08-06T07:44:53;2.05;;;1.85;;
43248;SDS011;29216;51.248;6.808;2023-08-06T07:47:19;1.70;;;1.60;;
43248;SDS011;29216;51.248;6.808;2023-08-06T07:49:45;3.55;;;1.63;;
43248;SDS011;29216;51.248;6.808;2023-08-06T07:52:11;2.47;;;1.65;;
43248;SDS011;29216;51.248;6.808;2023-08-06T07:54:37;2.47;;;1.80;;
43248;SDS011;29216;51.248;6.808;2023-08-06T07:57:03;1.88;;;1.77;;
43248;SDS011;29216;51.248;6.808;2023-08-06T07:59:29;2.00;;;1.70;;
43248;SDS011;29216;51.248;6.808;2023-08-06T08:01:55;3.30;;;2.05;;
43248;SDS011;29216;51.248;6.808;2023-08-06T08:04:21;3.45;;;1.65;;
43248;SDS011;29216;51.248;6.808;2023-08-06T08:06:47;2.92;;;2.03;;
43248;SDS011;29216;51.248;6.808;2023-08-06T08:09:13;3.15;;;2.00;;
43248;SDS011;29216;51.248;6.808;2023-08-06T08:11:41;3.25;;;2.35;;
43248;SDS011;29216;51.248;6.808;2023-08-06T08:14:07;3.22;;;2.65;;
43248;SDS011;29216;51.248;6.808;2023-08-06T08:16:33;3.45;;;2.80;;
43248;SDS011;29216;51.248;6.808;2023-08-06T08:18:59;3.38;;;2.90;;
43248;SDS011;29216;51.248;6.808;2023-08-06T08:21:25;3.13;;;2.80;;
43248;SDS011;29216;51.248;6.808;2023-08-06T08:23:51;3.00;;;2.70;;
43248;SDS011;29216;51.248;6.808;2023-08-06T08:26:17;4.72;;;3.47;;
43248;SDS011;29216;51.248;6.808;2023-08-06T08:28:43;5.75;;;3.20;;
43248;SDS011;29216;51.248;6.808;2023-08-06T08:31:10;4.80;;;3.22;;
43248;SDS011;29216;51.248;6.808;2023-08-06T08:33:36;4.63;;;2.85;;
43248;SDS011;29216;51.248;6.808;2023-08-06T08:36:02;4.25;;;2.60;;
43248;SDS011;29216;51.248;6.808;2023-08-06T08:38:29;5.07;;;2.50;;
43248;SDS011;29216;51.248;6.808;2023-08-06T08:40:55;3.30;;;2.65;;
43248;SDS011;29216;51.248;6.808;2023-08-06T08:43:21;3.35;;;2.55;;
43248;SDS011;29216;51.248;6.808;2023-08-06T08:45:49;2.75;;;2.20;;
43248;SDS011;29216;51.248;6.808;2023-08-06T08:48:15;2.33;;;2.13;;
43248;SDS011;29216;51.248;6.808;2023-08-06T08:50:42;2.22;;;2.03;;
43248;SDS011;29216;51.248;6.808;2023-08-06T08:53:09;2.72;;;2.13;;
43248;SDS011;29216;51.248;6.808;2023-08-06T08:55:37;3.30;;;2.10;;
43248;SDS011;29216;51.248;6.808;2023-08-06T08:58:06;2.35;;;2.00;;
43248;SDS011;29216;51.248;6.808;2023-08-06T09:00:32;3.13;;;2.20;;
43248;SDS011;29216;51.248;6.808;2023-08-06T09:02:58;2.60;;;1.80;;
43248;SDS011;29216;51.248;6.808;2023-08-06T09:05:26;3.55;;;1.90;;
43248;SDS011;29216;51.248;6.808;2023-08-06T09:07:56;1.70;;;1.60;;
43248;SDS011;29216;51.248;6.808;2023-08-06T09:10:25;3.83;;;2.00;;
43248;SDS011;29216;51.248;6.808;2023-08-06T09:12:51;3.08;;;1.90;;
43248;SDS011;29216;51.248;6.808;2023-08-06T09:15:19;2.22;;;1.95;;
43248;SDS011;29216;51.248;6.808;2023-08-06T09:17:45;2.35;;;1.88;;
43248;SDS011;29216;51.248;6.808;2023-08-06T09:20:14;2.78;;;2.10;;
43248;SDS011;29216;51.248;6.808;2023-08-06T09:22:40;2.45;;;2.25;;
43248;SDS011;29216;51.248;6.808;2023-08-06T09:25:07;2.58;;;2.10;;
43248;SDS011;29216;51.248;6.808;2023-08-06T09:27:36;2.45;;;2.25;;
43248;SDS011;29216;51.248;6.808;2023-08-06T09:30:03;3.50;;;2.30;;
43248;SDS011;29216;51.248;6.808;2023-08-06T09:32:45;2.55;;;2.30;;
43248;SDS011;29216;51.248;6.808;2023-08-06T09:35:15;6.47;;;2.63;;
43248;SDS011;29216;51.248;6.808;2023-08-06T09:37:41;3.00;;;2.30;;
43248;SDS011;29216;51.248;6.808;2023-08-06T09:42:52;3.05;;;2.20;;
43248;SDS011;29216;51.248;6.808;2023-08-06T09:45:18;4.38;;;2.40;;
43248;SDS011;29216;51.248;6.808;2023-08-06T09:47:44;5.68;;;2.72;;
43248;SDS011;29216;51.248;6.808;2023-08-06T09:50:20;5.10;;;2.65;;
43248;SDS011;29216;51.248;6.808;2023-08-06T09:52:51;5.30;;;3.10;;
43248;SDS011;29216;51.248;6.808;2023-08-06T09:55:18;6.00;;;3.17;;
43248;SDS011;29216;51.248;6.808;2023-08-06T09:57:44;4.85;;;3.10;;
43248;SDS011;29216;51.248;6.808;2023-08-06T10:00:10;6.35;;;4.00;;
43248;SDS011;29216;51.248;6.808;2023-08-06T10:02:40;6.03;;;3.80;;
43248;SDS011;29216;51.248;6.808;2023-08-06T10:05:09;6.15;;;3.80;;
43248;SDS011;29216;51.248;6.808;2023-08-06T10:07:35;9.50;;;4.55;;
43248;SDS011;29216;51.248;6.808;2023-08-06T10:10:02;7.20;;;4.50;;
43248;SDS011;29216;51.248;6.808;2023-08-06T10:12:30;6.97;;;4.30;;
43248;SDS011;29216;51.248;6.808;2023-08-06T10:14:59;6.25;;;3.58;;
43248;SDS011;29216;51.248;6.808;2023-08-06T10:17:25;6.07;;;3.45;;
43248;SDS011;29216;51.248;6.808;2023-08-06T10:19:53;7.40;;;3.40;;
43248;SDS011;29216;51.248;6.808;2023-08-06T10:22:22;6.97;;;3.28;;
43248;SDS011;29216;51.248;6.808;2023-08-06T10:24:49;4.65;;;2.70;;
43248;SDS011;29216;51.248;6.808;2023-08-06T10:29:47;4.00;;;2.60;;
43248;SDS011;29216;51.248;6.808;2023-08-06T10:32:15;5.28;;;2.50;;
43248;SDS011;29216;51.248;6.808;2023-08-06T10:34:58;2.85;;;2.05;;
43248;SDS011;29216;51.248;6.808;2023-08-06T10:37:37;2.10;;;1.90;;
43248;SDS011;29216;51.248;6.808;2023-08-06T10:40:05;5.28;;;2.00;;
43248;SDS011;29216;51.248;6.808;2023-08-06T10:42:37;1.73;;;1.50;;
43248;SDS011;29216;51.248;6.808;2023-08-06T10:47:39;1.20;;;1.20;;
43248;SDS011;29216;51.248;6.808;2023-08-06T10:50:06;3.38;;;1.42;;
43248;SDS011;29216;51.248;6.808;2023-08-06T10:52:33;1.73;;;1.63;;
43248;SDS011;29216;51.248;6.808;2023-08-06T10:54:59;1.63;;;1.52;;
43248;SDS011;29216;51.248;6.808;2023-08-06T10:57:25;2.72;;;1.80;;
43248;SDS011;29216;51.248;6.808;2023-08-06T10:59:54;2.25;;;1.83;;
43248;SDS011;29216;51.248;6.808;2023-08-06T11:02:20;3.78;;;2.20;;
43248;SDS011;29216;51.248;6.808;2023-08-06T11:04:47;2.30;;;2.10;;
43248;SDS011;29216;51.248;6.808;2023-08-06T11:07:13;2.33;;;2.15;;
43248;SDS011;29216;51.248;6.808;2023-08-06T11:09:42;2.60;;;2.40;;
43248;SDS011;29216;51.248;6.808;2023-08-06T11:12:11;2.63;;;2.20;;
43248;SDS011;29216;51.248;6.808;2023-08-06T11:14:40;4.15;;;2.58;;
43248;SDS011;29216;51.248;6.808;2023-08-06T11:17:08;2.47;;;2.28;;
43248;SDS011;29216;51.248;6.808;2023-08-06T11:19:34;3.70;;;3.10;;
43248;SDS011;29216;51.248;6.808;2023-08-06T11:22:00;4.20;;;3.22;;
43248;SDS011;29216;51.248;6.808;2023-08-06T11:24:27;4.32;;;3.15;;
43248;SDS011;29216;51.248;6.808;2023-08-06T11:26:56;4.15;;;3.35;;
43248;SDS011;29216;51.248;6.808;2023-08-06T11:29:22;4.68;;;2.83;;
43248;SDS011;29216;51.248;6.808;2023-08-06T11:31:49;2.83;;;2.63;;
43248;SDS011;29216;51.248;6.808;2023-08-06T11:34:15;4.80;;;3.15;;
43248;SDS011;29216;51.248;6.808;2023-08-06T11:36:41;4.25;;;3.03;;
43248;SDS011;29216;51.248;6.808;2023-08-06T11:39:08;3.20;;;2.90;;
43248;SDS011;29216;51.248;6.808;2023-08-06T11:41:37;3.72;;;2.80;;
43248;SDS011;29216;51.248;6.808;2023-08-06T11:44:04;3.20;;;2.90;;
43248;SDS011;29216;51.248;6.808;2023-08-06T11:46:49;4.28;;;2.80;;
43248;SDS011;29216;51.248;6.808;2023-08-06T11:52:07;5.35;;;3.42;;
43248;SDS011;29216;51.248;6.808;2023-08-06T11:54:38;4.13;;;2.85;;
43248;SDS011;29216;51.248;6.808;2023-08-06T11:57:07;5.20;;;3.00;;
43248;SDS011;29216;51.248;6.808;2023-08-06T11:59:34;4.50;;;2.83;;
43248;SDS011;29216;51.248;6.808;2023-08-06T12:02:01;4.65;;;3.03;;
43248;SDS011;29216;51.248;6.808;2023-08-06T12:04:30;8.82;;;2.92;;
43248;SDS011;29216;51.248;6.808;2023-08-06T12:07:04;4.20;;;3.20;;
43248;SDS011;29216;51.248;6.808;2023-08-06T12:09:30;4.38;;;3.00;;
43248;SDS011;29216;51.248;6.808;2023-08-06T12:11:56;5.25;;;3.78;;
43248;SDS011;29216;51.248;6.808;2023-08-06T12:14:25;5.95;;;3.70;;
43248;SDS011;29216;51.248;6.808;2023-08-06T12:16:51;5.25;;;3.53;;
43248;SDS011;29216;51.248;6.808;2023-08-06T12:19:17;8.63;;;3.83;;
43248;SDS011;29216;51.248;6.808;2023-08-06T12:21:43;7.32;;;3.70;;
43248;SDS011;29216;51.248;6.808;2023-08-06T12:24:09;4.43;;;3.42;;
43248;SDS011;29216;51.248;6.808;2023-08-06T12:26:37;5.93;;;3.83;;
43248;SDS011;29216;51.248;6.808;2023-08-06T12:29:03;5.75;;;3.22;;
43248;SDS011;29216;51.248;6.808;2023-08-06T12:31:29;4.78;;;3.70;;
43248;SDS011;29216;51.248;6.808;2023-08-06T12:33:55;4.95;;;3.63;;
43248;SDS011;29216;51.248;6.808;2023-08-06T12:36:21;6.10;;;3.90;;
43248;SDS011;29216;51.248;6.808;2023-08-06T12:38:47;5.80;;;3.58;;
43248;SDS011;29216;51.248;6.808;2023-08-06T12:41:13;5.55;;;3.50;;
43248;SDS011;29216;51.248;6.808;2023-08-06T12:43:39;7.72;;;4.20;;
43248;SDS011;29216;51.248;6.808;2023-08-06T12:46:05;11.68;;;3.85;;
43248;SDS011;29216;51.248;6.808;2023-08-06T12:48:31;7.18;;;3.85;;
43248;SDS011;29216;51.248;6.808;2023-08-06T12:50:57;7.47;;;3.47;;
43248;SDS011;29216;51.248;6.808;2023-08-06T12:53:23;5.10;;;3.40;;
43248;SDS011;29216;51.248;6.808;2023-08-06T12:55:49;4.28;;;3.45;;
43248;SDS011;29216;51.248;6.808;2023-08-06T12:58:15;7.90;;;3.80;;
43248;SDS011;29216;51.248;6.808;2023-08-06T13:00:41;4.32;;;3.28;;
43248;SDS011;29216;51.248;6.808;2023-08-06T13:03:07;3.90;;;3.28;;
43248;SDS011;29216;51.248;6.808;2023-08-06T13:05:33;4.30;;;3.08;;
43248;SDS011;29216;51.248;6.808;2023-08-06T13:07:59;5.18;;;3.00;;
43248;SDS011;29216;51.248;6.808;2023-08-06T13:10:25;3.67;;;2.90;;
43248;SDS011;29216;51.248;6.808;2023-08-06T13:12:52;4.75;;;3.25;;
43248;SDS011;29216;51.248;6.808;2023-08-06T13:15:18;5.22;;;2.80;;
43248;SDS011;29216;51.248;6.808;2023-08-06T13:17:46;5.65;;;2.97;;
43248;SDS011;29216;51.248;6.808;2023-08-06T13:20:12;4.03;;;2.85;;
43248;SDS011;29216;51.248;6.808;2023-08-06T13:22:37;6.32;;;2.70;;
43248;SDS011;29216;51.248;6.808;2023-08-06T13:25:04;5.70;;;2.90;;
43248;SDS011;29216;51.248;6.808;2023-08-06T13:27:29;4.45;;;2.70;;
43248;SDS011;29216;51.248;6.808;2023-08-06T13:29:55;5.53;;;2.85;;
43248;SDS011;29216;51.248;6.808;2023-08-06T13:32:21;2.95;;;2.38;;
43248;SDS011;29216;51.248;6.808;2023-08-06T13:34:47;3.03;;;2.40;;
43248;SDS011;29216;51.248;6.808;2023-08-06T13:37:13;4.45;;;2.45;;
43248;SDS011;29216;51.248;6.808;2023-08-06T13:39:39;4.85;;;2.60;;
43248;SDS011;29216;51.248;6.808;2023-08-06T13:42:05;4.05;;;2.50;;
43248;SDS011;29216;51.248;6.808;2023-08-06T13:44:31;4.28;;;2.35;;
43248;SDS011;29216;51.248;6.808;2023-08-06T13:47:00;4.55;;;2.55;;
43248;SDS011;29216;51.248;6.808;2023-08-06T13:49:27;4.32;;;2.47;;
43248;SDS011;29216;51.248;6.808;2023-08-06T13:51:53;3.35;;;2.20;;
43248;SDS011;29216;51.248;6.808;2023-08-06T13:54:19;2.83;;;2.40;;
43248;SDS011;29216;51.248;6.808;2023-08-06T13:56:46;3.85;;;2.50;;
43248;SDS011;29216;51.248;6.808;2023-08-06T13:59:12;3.25;;;2.30;;
43248;SDS011;29216;51.248;6.808;2023-08-06T14:01:39;5.80;;;2.60;;
43248;SDS011;29216;51.248;6.808;2023-08-06T14:04:05;5.47;;;2.78;;
43248;SDS011;29216;51.248;6.808;2023-08-06T14:06:31;3.40;;;2.40;;
43248;SDS011;29216;51.248;6.808;2023-08-06T14:08:57;3.58;;;2.88;;
43248;SDS011;29216;51.248;6.808;2023-08-06T14:11:23;4.43;;;2.45;;
43248;SDS011;29216;51.248;6.808;2023-08-06T14:13:49;5.35;;;2.72;;
43248;SDS011;29216;51.248;6.808;2023-08-06T14:16:15;3.42;;;2.53;;
43248;SDS011;29216;51.248;6.808;2023-08-06T14:18:41;5.43;;;3.00;;
43248;SDS011;29216;51.248;6.808;2023-08-06T14:21:07;3.97;;;2.70;;
43248;SDS011;29216;51.248;6.808;2023-08-06T14:23:33;4.10;;;2.42;;
43248;SDS011;29216;51.248;6.808;2023-08-06T14:25:59;4.18;;;2.70;;
43248;SDS011;29216;51.248;6.808;2023-08-06T14:28:25;3.05;;;2.47;;
43248;SDS011;29216;51.248;6.808;2023-08-06T14:30:51;3.28;;;2.78;;
43248;SDS011;29216;51.248;6.808;2023-08-06T14:33:17;3.92;;;2.50;;
43248;SDS011;29216;51.248;6.808;2023-08-06T14:35:43;3.33;;;2.60;;
43248;SDS011;29216;51.248;6.808;2023-08-06T14:38:12;4.40;;;2.67;;
43248;SDS011;29216;51.248;6.808;2023-08-06T14:40:38;3.33;;;2.13;;
43248;SDS011;29216;51.248;6.808;2023-08-06T14:43:05;5.18;;;2.70;;
43248;SDS011;29216;51.248;6.808;2023-08-06T14:45:31;4.72;;;2.50;;
43248;SDS011;29216;51.248;6.808;2023-08-06T14:47:57;3.20;;;2.30;;
43248;SDS011;29216;51.248;6.808;2023-08-06T14:50:23;4.10;;;2.40;;
43248;SDS011;29216;51.248;6.808;2023-08-06T14:52:49;4.53;;;2.53;;
43248;SDS011;29216;51.248;6.808;2023-08-06T14:55:24;3.38;;;2.33;;
43248;SDS011;29216;51.248;6.808;2023-08-06T14:57:51;3.00;;;2.15;;
43248;SDS011;29216;51.248;6.808;2023-08-06T15:00:17;3.28;;;2.50;;